sensor_id;sensor_type;location;lat;lon;timestamp;pressure;altitude;pressure_sealevel;temperature;humidity
3780;BME280;1905;52.482;9.802;2023-05-07T00:02:23;101524.28;;;13.21;67.52
3780;BME280;1905;52.482;9.802;2023-05-07T00:04:52;101528.66;;;13.22;67.16
3780;BME280;1905;52.482;9.802;2023-05-07T00:07:19;101525.25;;;13.18;67.95
3780;BME280;1905;52.482;9.802;2023-05-07T00:09:47;101527.13;;;13.16;67.39
3780;BME280;1905;52.482;9.802;2023-05-07T00:12:16;101522.81;;;13.13;67.83
3780;BME280;1905;52.482;9.802;2023-05-07T00:14:43;101525.53;;;13.12;68.04
3780;BME280;1905;52.482;9.802;2023-05-07T00:17:11;101513.19;;;13.11;68.25
3780;BME280;1905;52.482;9.802;2023-05-07T00:19:39;101514.25;;;13.07;67.42
3780;BME280;1905;52.482;9.802;2023-05-07T00:22:08;101516.91;;;13.07;67.44
3780;BME280;1905;52.482;9.802;2023-05-07T00:24:36;101521.34;;;13.05;67.95
3780;BME280;1905;52.482;9.802;2023-05-07T00:27:04;101525.00;;;13.02;68.28
3780;BME280;1905;52.482;9.802;2023-05-07T00:29:32;101534.72;;;13.02;67.65
3780;BME280;1905;52.482;9.802;2023-05-07T00:32:00;101527.84;;;12.98;67.91
3780;BME280;1905;52.482;9.802;2023-05-07T00:34:28;101520.66;;;13.00;67.92
3780;BME280;1905;52.482;9.802;2023-05-07T00:36:56;101511.91;;;12.98;67.99
3780;BME280;1905;52.482;9.802;2023-05-07T00:39:23;101508.59;;;12.93;68.03
3780;BME280;1905;52.482;9.802;2023-05-07T00:41:51;101506.84;;;12.92;68.06
3780;BME280;1905;52.482;9.802;2023-05-07T00:44:19;101500.69;;;12.91;68.54
3780;BME280;1905;52.482;9.802;2023-05-07T00:46:48;101502.53;;;12.89;67.78
3780;BME280;1905;52.482;9.802;2023-05-07T00:49:16;101494.59;;;12.89;68.12
3780;BME280;1905;52.482;9.802;2023-05-07T00:51:44;101499.03;;;12.89;67.93
3780;BME280;1905;52.482;9.802;2023-05-07T00:54:13;101495.69;;;12.84;67.67
3780;BME280;1905;52.482;9.802;2023-05-07T00:56:40;101502.78;;;12.83;68.31
3780;BME280;1905;52.482;9.802;2023-05-07T00:59:08;101498.47;;;12.81;68.23
3780;BME280;1905;52.482;9.802;2023-05-07T01:01:36;101509.19;;;12.78;68.84
3780;BME280;1905;52.482;9.802;2023-05-07T01:04:05;101507.47;;;12.77;68.52
3780;BME280;1905;52.482;9.802;2023-05-07T01:06:33;101504.00;;;12.75;68.37
3780;BME280;1905;52.482;9.802;2023-05-07T01:09:01;101510.28;;;12.72;68.39
3780;BME280;1905;52.482;9.802;2023-05-07T01:11:34;101510.28;;;12.72;68.25
3780;BME280;1905;52.482;9.802;2023-05-07T01:14:02;101505.09;;;12.69;68.60
3780;BME280;1905;52.482;9.802;2023-05-07T01:16:30;101498.97;;;12.69;68.12
3780;BME280;1905;52.482;9.802;2023-05-07T01:18:57;101499.09;;;12.66;68.72
3780;BME280;1905;52.482;9.802;2023-05-07T01:21:32;101501.66;;;12.67;68.58
3780;BME280;1905;52.482;9.802;2023-05-07T01:24:04;101506.25;;;12.64;68.56
3780;BME280;1905;52.482;9.802;2023-05-07T01:26:32;101506.34;;;12.61;68.87
3780;BME280;1905;52.482;9.802;2023-05-07T01:29:00;101507.25;;;12.60;68.31
3780;BME280;1905;52.482;9.802;2023-05-07T01:31:28;101506.34;;;12.61;68.53
3780;BME280;1905;52.482;9.802;2023-05-07T01:33:57;101501.06;;;12.61;68.97
3780;BME280;1905;52.482;9.802;2023-05-07T01:36:27;101501.16;;;12.58;68.82
3780;BME280;1905;52.482;9.802;2023-05-07T01:38:57;101503.13;;;12.52;69.12
3780;BME280;1905;52.482;9.802;2023-05-07T01:41:27;101504.84;;;12.53;68.82
3780;BME280;1905;52.482;9.802;2023-05-07T01:43:56;101517.28;;;12.51;69.12
3780;BME280;1905;52.482;9.802;2023-05-07T01:46:26;101510.16;;;12.53;69.10
3780;BME280;1905;52.482;9.802;2023-05-07T01:48:54;101506.59;;;12.54;68.52
3780;BME280;1905;52.482;9.802;2023-05-07T01:51:21;101506.81;;;12.48;68.51
3780;BME280;1905;52.482;9.802;2023-05-07T01:53:49;101516.63;;;12.46;68.89
3780;BME280;1905;52.482;9.802;2023-05-07T01:56:19;101512.34;;;12.42;68.96
3780;BME280;1905;52.482;9.802;2023-05-07T01:58:49;101503.59;;;12.40;69.03
3780;BME280;1905;52.482;9.802;2023-05-07T02:01:21;101501.84;;;12.39;68.84
3780;BME280;1905;52.482;9.802;2023-05-07T02:03:49;101502.00;;;12.36;69.01
3780;BME280;1905;52.482;9.802;2023-05-07T02:06:22;101510.75;;;12.38;68.98
3780;BME280;1905;52.482;9.802;2023-05-07T02:08:54;101505.44;;;12.38;68.85
3780;BME280;1905;52.482;9.802;2023-05-07T02:11:21;101508.22;;;12.35;69.52
3780;BME280;1905;52.482;9.802;2023-05-07T02:13:50;101510.06;;;12.33;69.17
3780;BME280;1905;52.482;9.802;2023-05-07T02:16:19;101513.63;;;12.32;69.46
3780;BME280;1905;52.482;9.802;2023-05-07T02:18:48;101507.44;;;12.32;68.84
3780;BME280;1905;52.482;9.802;2023-05-07T02:21:15;101510.09;;;12.32;69.14
3780;BME280;1905;52.482;9.802;2023-05-07T02:23:43;101517.25;;;12.30;69.21
3780;BME280;1905;52.482;9.802;2023-05-07T02:26:11;101518.16;;;12.29;69.50
3780;BME280;1905;52.482;9.802;2023-05-07T02:28:38;101515.50;;;12.29;69.25
3780;BME280;1905;52.482;9.802;2023-05-07T02:31:07;101521.66;;;12.29;69.46
3780;BME280;1905;52.482;9.802;2023-05-07T02:33:35;101521.78;;;12.26;69.49
3780;BME280;1905;52.482;9.802;2023-05-07T02:36:06;101515.69;;;12.24;69.63
3780;BME280;1905;52.482;9.802;2023-05-07T02:38:35;101515.69;;;12.24;69.21
3780;BME280;1905;52.482;9.802;2023-05-07T02:41:04;101529.84;;;12.23;69.46
3780;BME280;1905;52.482;9.802;2023-05-07T02:43:31;101532.50;;;12.23;69.00
3780;BME280;1905;52.482;9.802;2023-05-07T02:46:03;101532.59;;;12.20;69.38
3780;BME280;1905;52.482;9.802;2023-05-07T02:48:34;101520.28;;;12.19;69.65
3780;BME280;1905;52.482;9.802;2023-05-07T02:51:02;101525.53;;;12.21;69.42
3780;BME280;1905;52.482;9.802;2023-05-07T02:53:31;101521.19;;;12.18;69.26
3780;BME280;1905;52.482;9.802;2023-05-07T02:56:00;101520.28;;;12.19;69.70
3780;BME280;1905;52.482;9.802;2023-05-07T02:58:28;101522.16;;;12.17;70.07
3780;BME280;1905;52.482;9.802;2023-05-07T03:00:57;101518.56;;;12.18;69.24
3780;BME280;1905;52.482;9.802;2023-05-07T03:03:35;101530.13;;;12.16;69.30
3780;BME280;1905;52.482;9.802;2023-05-07T03:06:02;101520.41;;;12.16;70.05
3780;BME280;1905;52.482;9.802;2023-05-07T03:08:30;101520.41;;;12.16;69.60
3780;BME280;1905;52.482;9.802;2023-05-07T03:10:58;101512.84;;;12.06;69.33
3780;BME280;1905;52.482;9.802;2023-05-07T03:13:25;101519.72;;;12.11;69.23
3780;BME280;1905;52.482;9.802;2023-05-07T03:15:53;101515.22;;;12.13;69.31
3780;BME280;1905;52.482;9.802;2023-05-07T03:18:21;101519.84;;;12.07;69.44
3780;BME280;1905;52.482;9.802;2023-05-07T03:20:51;101518.91;;;12.09;69.48
3780;BME280;1905;52.482;9.802;2023-05-07T03:23:18;101510.09;;;12.09;69.49
3780;BME280;1905;52.482;9.802;2023-05-07T03:25:49;101516.31;;;12.08;69.17
3780;BME280;1905;52.482;9.802;2023-05-07T03:28:17;101520.84;;;12.04;70.06
3780;BME280;1905;52.482;9.802;2023-05-07T03:30:52;101521.78;;;12.03;68.90
3780;BME280;1905;52.482;9.802;2023-05-07T03:33:21;101509.44;;;12.02;69.85
3780;BME280;1905;52.482;9.802;2023-05-07T03:35:50;101505.94;;;12.02;69.49
3780;BME280;1905;52.482;9.802;2023-05-07T03:38:22;101510.38;;;12.01;69.36
3780;BME280;1905;52.482;9.802;2023-05-07T03:40:49;101513.06;;;12.00;69.42
3780;BME280;1905;52.482;9.802;2023-05-07T03:43:17;101514.16;;;11.94;69.72
3780;BME280;1905;52.482;9.802;2023-05-07T03:45:50;101516.69;;;11.97;69.87
3780;BME280;1905;52.482;9.802;2023-05-07T03:48:22;101515.13;;;11.91;69.70
3780;BME280;1905;52.482;9.802;2023-05-07T03:50:53;101510.81;;;11.89;69.59
3780;BME280;1905;52.482;9.802;2023-05-07T03:53:20;101512.56;;;11.90;69.73
3780;BME280;1905;52.482;9.802;2023-05-07T03:55:48;101520.53;;;11.88;69.06
3780;BME280;1905;52.482;9.802;2023-05-07T03:58:16;101517.84;;;11.90;69.88
3780;BME280;1905;52.482;9.802;2023-05-07T04:00:43;101516.00;;;11.92;69.64
3780;BME280;1905;52.482;9.802;2023-05-07T04:03:19;101514.25;;;11.91;69.30
3780;BME280;1905;52.482;9.802;2023-05-07T04:05:47;101514.16;;;11.94;69.48
3780;BME280;1905;52.482;9.802;2023-05-07T04:08:16;101521.50;;;11.86;69.74
3780;BME280;1905;52.482;9.802;2023-05-07T04:10:47;101520.63;;;11.85;69.33
3780;BME280;1905;52.482;9.802;2023-05-07T04:13:14;101519.72;;;11.86;69.82
3780;BME280;1905;52.482;9.802;2023-05-07T04:15:42;101524.16;;;11.86;69.80
3780;BME280;1905;52.482;9.802;2023-05-07T04:18:13;101531.22;;;11.85;69.96
3780;BME280;1905;52.482;9.802;2023-05-07T04:20:43;101539.16;;;11.85;69.83
3780;BME280;1905;52.482;9.802;2023-05-07T04:23:13;101537.50;;;11.83;70.14
3780;BME280;1905;52.482;9.802;2023-05-07T04:25:42;101544.53;;;11.84;69.97
3780;BME280;1905;52.482;9.802;2023-05-07T04:28:19;101541.06;;;11.82;69.77
3780;BME280;1905;52.482;9.802;2023-05-07T04:30:46;101542.88;;;11.80;69.90
3780;BME280;1905;52.482;9.802;2023-05-07T04:33:15;101543.75;;;11.80;70.13
3780;BME280;1905;52.482;9.802;2023-05-07T04:35:44;101548.25;;;11.78;70.25
3780;BME280;1905;52.482;9.802;2023-05-07T04:38:12;101550.03;;;11.78;70.45
3780;BME280;1905;52.482;9.802;2023-05-07T04:40:40;101546.47;;;11.79;69.89
3780;BME280;1905;52.482;9.802;2023-05-07T04:43:12;101553.47;;;11.80;70.18
3780;BME280;1905;52.482;9.802;2023-05-07T04:45:46;101556.22;;;11.77;70.21
3780;BME280;1905;52.482;9.802;2023-05-07T04:48:13;101555.31;;;11.78;70.20
3780;BME280;1905;52.482;9.802;2023-05-07T04:50:42;101558.88;;;11.77;70.42
3780;BME280;1905;52.482;9.802;2023-05-07T04:53:10;101569.34;;;11.80;70.03
3780;BME280;1905;52.482;9.802;2023-05-07T04:55:38;101573.81;;;11.79;70.22
3780;BME280;1905;52.482;9.802;2023-05-07T04:58:06;101569.41;;;11.78;69.88
3780;BME280;1905;52.482;9.802;2023-05-07T05:00:37;101580.88;;;11.79;70.33
3780;BME280;1905;52.482;9.802;2023-05-07T05:03:06;101577.38;;;11.77;70.10
3780;BME280;1905;52.482;9.802;2023-05-07T05:05:36;101575.59;;;11.79;70.08
3780;BME280;1905;52.482;9.802;2023-05-07T05:08:03;101585.22;;;11.80;69.96
3780;BME280;1905;52.482;9.802;2023-05-07T05:10:34;101582.66;;;11.78;69.66
3780;BME280;1905;52.482;9.802;2023-05-07T05:13:02;101585.31;;;11.77;69.64
3780;BME280;1905;52.482;9.802;2023-05-07T05:15:30;101578.22;;;11.79;69.96
3780;BME280;1905;52.482;9.802;2023-05-07T05:18:01;101583.63;;;11.76;69.59
3780;BME280;1905;52.482;9.802;2023-05-07T05:20:30;101594.09;;;11.79;70.06
3780;BME280;1905;52.482;9.802;2023-05-07T05:22:57;101584.50;;;11.76;70.44
3780;BME280;1905;52.482;9.802;2023-05-07T05:25:25;101592.47;;;11.75;69.79
3780;BME280;1905;52.482;9.802;2023-05-07T05:27:52;101593.34;;;11.75;69.77
3780;BME280;1905;52.482;9.802;2023-05-07T05:30:20;101589.78;;;11.76;70.12
3780;BME280;1905;52.482;9.802;2023-05-07T05:32:48;101587.06;;;11.78;69.94
3780;BME280;1905;52.482;9.802;2023-05-07T05:35:17;101590.63;;;11.77;69.84
3780;BME280;1905;52.482;9.802;2023-05-07T05:37:45;101588.91;;;11.76;69.66
3780;BME280;1905;52.482;9.802;2023-05-07T05:40:13;101590.53;;;11.80;69.92
3780;BME280;1905;52.482;9.802;2023-05-07T05:42:40;101593.13;;;11.81;69.72
3780;BME280;1905;52.482;9.802;2023-05-07T05:45:09;101595.72;;;11.83;70.02
3780;BME280;1905;52.482;9.802;2023-05-07T05:47:38;101599.16;;;11.85;70.00
3780;BME280;1905;52.482;9.802;2023-05-07T05:50:09;101593.88;;;11.85;69.49
3780;BME280;1905;52.482;9.802;2023-05-07T05:52:38;101587.63;;;11.87;69.64
3780;BME280;1905;52.482;9.802;2023-05-07T05:55:08;101604.47;;;11.85;69.97
3780;BME280;1905;52.482;9.802;2023-05-07T05:57:37;101595.63;;;11.86;69.57
3780;BME280;1905;52.482;9.802;2023-05-07T06:00:05;101588.38;;;11.91;69.45
3780;BME280;1905;52.482;9.802;2023-05-07T06:02:43;101594.53;;;11.91;69.70
3780;BME280;1905;52.482;9.802;2023-05-07T06:05:17;101611.28;;;11.92;69.61
3780;BME280;1905;52.482;9.802;2023-05-07T06:07:48;101609.56;;;11.91;69.53
3780;BME280;1905;52.482;9.802;2023-05-07T06:10:16;101611.19;;;11.95;69.29
3780;BME280;1905;52.482;9.802;2023-05-07T06:12:45;101611.03;;;12.00;69.34
3780;BME280;1905;52.482;9.802;2023-05-07T06:15:13;101600.44;;;12.00;69.17
3780;BME280;1905;52.482;9.802;2023-05-07T06:17:41;101595.09;;;12.01;69.20
3780;BME280;1905;52.482;9.802;2023-05-07T06:20:10;101601.19;;;12.03;69.59
3780;BME280;1905;52.482;9.802;2023-05-07T06:22:39;101603.84;;;12.03;69.43
3780;BME280;1905;52.482;9.802;2023-05-07T06:25:10;101610.84;;;12.04;69.36
3780;BME280;1905;52.482;9.802;2023-05-07T06:27:39;101603.66;;;12.09;69.08
3780;BME280;1905;52.482;9.802;2023-05-07T06:30:10;101606.13;;;12.14;69.04
3780;BME280;1905;52.482;9.802;2023-05-07T06:32:40;101606.88;;;12.17;68.84
3780;BME280;1905;52.482;9.802;2023-05-07T06:35:08;101601.69;;;12.14;69.01
3780;BME280;1905;52.482;9.802;2023-05-07T06:37:38;101608.50;;;12.21;69.09
3780;BME280;1905;52.482;9.802;2023-05-07T06:40:07;101607.41;;;12.27;68.76
3780;BME280;1905;52.482;9.802;2023-05-07T06:42:39;101598.38;;;12.32;69.37
3780;BME280;1905;52.482;9.802;2023-05-07T06:45:42;101600.81;;;12.38;68.40
3780;BME280;1905;52.482;9.802;2023-05-07T06:48:10;101598.19;;;12.37;68.71
3780;BME280;1905;52.482;9.802;2023-05-07T06:50:48;101596.41;;;12.37;68.71
3780;BME280;1905;52.482;9.802;2023-05-07T06:53:15;101592.50;;;12.47;68.36
3780;BME280;1905;52.482;9.802;2023-05-07T06:55:43;101601.09;;;12.54;68.50
3780;BME280;1905;52.482;9.802;2023-05-07T06:58:13;101597.38;;;12.60;67.97
3780;BME280;1905;52.482;9.802;2023-05-07T07:00:41;101602.47;;;12.64;67.93
3780;BME280;1905;52.482;9.802;2023-05-07T07:03:09;101598.16;;;12.62;67.79
3780;BME280;1905;52.482;9.802;2023-05-07T07:05:38;101601.47;;;12.68;68.24
3780;BME280;1905;52.482;9.802;2023-05-07T07:08:05;101611.13;;;12.69;68.75
3780;BME280;1905;52.482;9.802;2023-05-07T07:10:33;101625.81;;;12.78;68.08
3780;BME280;1905;52.482;9.802;2023-05-07T07:13:01;101619.72;;;12.76;68.48
3780;BME280;1905;52.482;9.802;2023-05-07T07:15:30;101609.69;;;12.84;67.73
3780;BME280;1905;52.482;9.802;2023-05-07T07:17:58;101621.66;;;12.94;67.72
3780;BME280;1905;52.482;9.802;2023-05-07T07:20:26;101609.13;;;12.99;67.61
3780;BME280;1905;52.482;9.802;2023-05-07T07:22:54;101619.84;;;12.96;67.46
3780;BME280;1905;52.482;9.802;2023-05-07T07:25:21;101626.75;;;13.00;67.36
3780;BME280;1905;52.482;9.802;2023-05-07T07:27:50;101629.28;;;13.03;67.78
3780;BME280;1905;52.482;9.802;2023-05-07T07:30:18;101629.88;;;13.11;67.06
3780;BME280;1905;52.482;9.802;2023-05-07T07:32:49;101638.50;;;13.16;67.02
3780;BME280;1905;52.482;9.802;2023-05-07T07:35:18;101638.28;;;13.22;66.57
3780;BME280;1905;52.482;9.802;2023-05-07T07:37:48;101634.59;;;13.26;66.70
3780;BME280;1905;52.482;9.802;2023-05-07T07:40:16;101640.94;;;13.22;67.14
3780;BME280;1905;52.482;9.802;2023-05-07T07:42:44;101631.13;;;13.24;67.17
3780;BME280;1905;52.482;9.802;2023-05-07T07:45:12;101629.16;;;13.29;66.62
3780;BME280;1905;52.482;9.802;2023-05-07T07:47:44;101633.63;;;13.29;66.78
3780;BME280;1905;52.482;9.802;2023-05-07T07:50:13;101634.34;;;13.32;66.63
3780;BME280;1905;52.482;9.802;2023-05-07T07:53:02;101637.44;;;13.43;65.97
3780;BME280;1905;52.482;9.802;2023-05-07T07:55:29;101633.97;;;13.41;66.63
3780;BME280;1905;52.482;9.802;2023-05-07T07:57:59;101635.44;;;13.48;66.26
3780;BME280;1905;52.482;9.802;2023-05-07T08:00:27;101631.63;;;13.55;66.09
3780;BME280;1905;52.482;9.802;2023-05-07T08:02:55;101641.25;;;13.58;65.80
3780;BME280;1905;52.482;9.802;2023-05-07T08:05:29;101639.28;;;13.63;65.84
3780;BME280;1905;52.482;9.802;2023-05-07T08:07:59;101650.53;;;13.69;66.05
3780;BME280;1905;52.482;9.802;2023-05-07T08:10:31;101645.22;;;13.69;65.81
3780;BME280;1905;52.482;9.802;2023-05-07T08:13:05;101637.09;;;13.72;65.70
3780;BME280;1905;52.482;9.802;2023-05-07T08:15:35;101639.63;;;13.76;66.03
3780;BME280;1905;52.482;9.802;2023-05-07T08:18:03;101634.41;;;13.74;66.34
3780;BME280;1905;52.482;9.802;2023-05-07T08:20:33;101635.81;;;13.83;66.15
3780;BME280;1905;52.482;9.802;2023-05-07T08:23:07;101629.25;;;13.91;65.90
3780;BME280;1905;52.482;9.802;2023-05-07T08:25:37;101628.81;;;14.02;65.49
3780;BME280;1905;52.482;9.802;2023-05-07T08:28:04;101629.22;;;14.13;65.08
3780;BME280;1905;52.482;9.802;2023-05-07T08:30:36;101633.97;;;14.25;65.36
3780;BME280;1905;52.482;9.802;2023-05-07T08:33:05;101628.31;;;14.34;64.96
3780;BME280;1905;52.482;9.802;2023-05-07T08:35:33;101636.94;;;14.39;65.21
3780;BME280;1905;52.482;9.802;2023-05-07T08:38:02;101645.22;;;14.52;64.92
3780;BME280;1905;52.482;9.802;2023-05-07T08:40:35;101639.56;;;14.59;64.81
3780;BME280;1905;52.482;9.802;2023-05-07T08:43:07;101651.38;;;14.72;64.57
3780;BME280;1905;52.482;9.802;2023-05-07T08:45:39;101649.50;;;14.74;64.88
3780;BME280;1905;52.482;9.802;2023-05-07T08:48:15;101646.22;;;14.88;64.02
3780;BME280;1905;52.482;9.802;2023-05-07T08:50:50;101650.13;;;15.00;63.71
3780;BME280;1905;52.482;9.802;2023-05-07T08:53:20;101648.84;;;15.08;63.94
3780;BME280;1905;52.482;9.802;2023-05-07T08:55:48;101647.66;;;15.14;63.23
3780;BME280;1905;52.482;9.802;2023-05-07T08:58:16;101647.50;;;15.17;63.26
3780;BME280;1905;52.482;9.802;2023-05-07T09:00:44;101654.28;;;15.24;62.93
3780;BME280;1905;52.482;9.802;2023-05-07T09:03:12;101648.50;;;15.33;63.06
3780;BME280;1905;52.482;9.802;2023-05-07T09:05:43;101650.81;;;15.40;63.47
3780;BME280;1905;52.482;9.802;2023-05-07T09:08:15;101653.78;;;15.53;63.80
3780;BME280;1905;52.482;9.802;2023-05-07T09:10:47;101651.59;;;15.61;62.60
3780;BME280;1905;52.482;9.802;2023-05-07T09:13:16;101651.16;;;15.70;62.64
3780;BME280;1905;52.482;9.802;2023-05-07T09:15:45;101665.91;;;15.77;62.15
3780;BME280;1905;52.482;9.802;2023-05-07T09:18:13;101664.00;;;15.79;62.11
3780;BME280;1905;52.482;9.802;2023-05-07T09:20:44;101662.69;;;15.88;62.58
3780;BME280;1905;52.482;9.802;2023-05-07T09:23:13;101666.47;;;16.01;62.43
3780;BME280;1905;52.482;9.802;2023-05-07T09:25:44;101660.94;;;16.05;61.76
3780;BME280;1905;52.482;9.802;2023-05-07T09:28:19;101659.66;;;16.13;62.03
3780;BME280;1905;52.482;9.802;2023-05-07T09:30:46;101663.09;;;16.15;61.55
3780;BME280;1905;52.482;9.802;2023-05-07T09:33:15;101654.19;;;16.16;61.17
3780;BME280;1905;52.482;9.802;2023-05-07T09:35:50;101654.19;;;16.33;61.76
3780;BME280;1905;52.482;9.802;2023-05-07T09:38:20;101641.31;;;16.41;61.31
3780;BME280;1905;52.482;9.802;2023-05-07T09:41:02;101638.94;;;16.52;61.10
3780;BME280;1905;52.482;9.802;2023-05-07T09:43:33;101650.88;;;16.62;61.43
3780;BME280;1905;52.482;9.802;2023-05-07T09:46:06;101645.06;;;16.71;61.85
3780;BME280;1905;52.482;9.802;2023-05-07T09:48:37;101652.56;;;16.80;60.84
3780;BME280;1905;52.482;9.802;2023-05-07T09:51:14;101653.44;;;16.96;61.68
3780;BME280;1905;52.482;9.802;2023-05-07T09:53:43;101648.91;;;16.98;60.39
3780;BME280;1905;52.482;9.802;2023-05-07T09:56:14;101639.28;;;17.11;60.71
3780;BME280;1905;52.482;9.802;2023-05-07T09:58:43;101643.31;;;17.18;60.08
3780;BME280;1905;52.482;9.802;2023-05-07T10:01:38;101640.22;;;17.26;60.20
3780;BME280;1905;52.482;9.802;2023-05-07T10:04:09;101652.44;;;17.46;59.97
3780;BME280;1905;52.482;9.802;2023-05-07T10:06:38;101638.81;;;17.50;59.50
3780;BME280;1905;52.482;9.802;2023-05-07T10:09:06;101638.25;;;17.61;59.48
3780;BME280;1905;52.482;9.802;2023-05-07T10:11:36;101644.59;;;17.43;60.43
3780;BME280;1905;52.482;9.802;2023-05-07T10:14:04;101649.88;;;17.60;59.44
3780;BME280;1905;52.482;9.802;2023-05-07T10:16:34;101653.06;;;17.82;59.87
3780;BME280;1905;52.482;9.802;2023-05-07T10:19:07;101645.44;;;17.90;59.43
3780;BME280;1905;52.482;9.802;2023-05-07T10:21:48;101657.13;;;18.03;59.16
3780;BME280;1905;52.482;9.802;2023-05-07T10:24:21;101659.44;;;18.09;59.14
3780;BME280;1905;52.482;9.802;2023-05-07T10:26:52;101666.06;;;18.18;58.93
3780;BME280;1905;52.482;9.802;2023-05-07T10:29:27;101665.22;;;18.17;58.36
3780;BME280;1905;52.482;9.802;2023-05-07T10:32:07;101664.44;;;18.15;58.93
3780;BME280;1905;52.482;9.802;2023-05-07T10:34:40;101659.69;;;18.20;58.32
3780;BME280;1905;52.482;9.802;2023-05-07T10:37:10;101655.84;;;18.24;58.44
3780;BME280;1905;52.482;9.802;2023-05-07T10:39:39;101667.88;;;18.17;56.64
3780;BME280;1905;52.482;9.802;2023-05-07T10:42:10;101654.91;;;18.25;57.94
3780;BME280;1905;52.482;9.802;2023-05-07T10:44:43;101669.91;;;18.28;58.55
3780;BME280;1905;52.482;9.802;2023-05-07T10:47:17;101673.28;;;18.31;57.18
3780;BME280;1905;52.482;9.802;2023-05-07T10:50:22;101680.31;;;18.32;58.37
3780;BME280;1905;52.482;9.802;2023-05-07T10:53:22;101671.44;;;18.32;57.68
3780;BME280;1905;52.482;9.802;2023-05-07T10:56:25;101661.06;;;18.41;57.84
3780;BME280;1905;52.482;9.802;2023-05-07T10:59:32;101676.78;;;18.48;58.04
3780;BME280;1905;52.482;9.802;2023-05-07T11:02:09;101666.47;;;18.40;58.32
3780;BME280;1905;52.482;9.802;2023-05-07T11:04:45;101664.59;;;18.42;57.34
3780;BME280;1905;52.482;9.802;2023-05-07T11:07:27;101672.53;;;18.43;57.68
3780;BME280;1905;52.482;9.802;2023-05-07T11:10:07;101674.75;;;18.51;57.60
3780;BME280;1905;52.482;9.802;2023-05-07T11:12:54;101657.00;;;18.50;57.16
3780;BME280;1905;52.482;9.802;2023-05-07T11:15:42;101660.94;;;18.43;57.84
3780;BME280;1905;52.482;9.802;2023-05-07T11:18:46;101670.84;;;18.57;57.97
3780;BME280;1905;52.482;9.802;2023-05-07T11:21:31;101673.53;;;18.57;57.93
3780;BME280;1905;52.482;9.802;2023-05-07T11:24:07;101669.91;;;18.58;57.33
3780;BME280;1905;52.482;9.802;2023-05-07T11:26:49;101671.16;;;18.66;56.84
3780;BME280;1905;52.482;9.802;2023-05-07T11:29:21;101663.78;;;18.70;57.65
3780;BME280;1905;52.482;9.802;2023-05-07T11:31:55;101668.75;;;18.76;57.13
3780;BME280;1905;52.482;9.802;2023-05-07T11:34:28;101667.25;;;18.72;57.22
3780;BME280;1905;52.482;9.802;2023-05-07T11:36:58;101651.94;;;18.60;55.61
3780;BME280;1905;52.482;9.802;2023-05-07T11:39:39;101676.03;;;18.74;56.96
3780;BME280;1905;52.482;9.802;2023-05-07T11:42:06;101665.72;;;18.82;56.74
3780;BME280;1905;52.482;9.802;2023-05-07T11:44:42;101674.44;;;18.85;57.47
3780;BME280;1905;52.482;9.802;2023-05-07T11:47:11;101671.44;;;18.76;56.60
3780;BME280;1905;52.482;9.802;2023-05-07T11:49:39;101669.25;;;18.82;56.77
3780;BME280;1905;52.482;9.802;2023-05-07T11:52:07;101664.19;;;18.78;57.19
3780;BME280;1905;52.482;9.802;2023-05-07T11:54:35;101656.75;;;18.83;57.15
3780;BME280;1905;52.482;9.802;2023-05-07T11:57:03;101658.81;;;18.92;56.77
3780;BME280;1905;52.482;9.802;2023-05-07T11:59:38;101652.16;;;18.99;57.08
3780;BME280;1905;52.482;9.802;2023-05-07T12:02:06;101657.00;;;19.07;57.84
3780;BME280;1905;52.482;9.802;2023-05-07T12:04:35;101658.50;;;19.11;56.79
3780;BME280;1905;52.482;9.802;2023-05-07T12:07:03;101660.34;;;19.10;56.53
3780;BME280;1905;52.482;9.802;2023-05-07T12:09:32;101661.38;;;19.22;56.61
3780;BME280;1905;52.482;9.802;2023-05-07T12:12:03;101659.47;;;19.24;56.75
3780;BME280;1905;52.482;9.802;2023-05-07T12:14:31;101669.78;;;19.30;56.48
3780;BME280;1905;52.482;9.802;2023-05-07T12:17:00;101665.13;;;19.19;56.86
3780;BME280;1905;52.482;9.802;2023-05-07T12:19:37;101664.84;;;19.24;56.42
3780;BME280;1905;52.482;9.802;2023-05-07T12:22:07;101671.41;;;19.32;56.50
3780;BME280;1905;52.482;9.802;2023-05-07T12:24:45;101671.13;;;19.37;56.56
3780;BME280;1905;52.482;9.802;2023-05-07T12:27:13;101673.81;;;19.37;56.38
3780;BME280;1905;52.482;9.802;2023-05-07T12:29:44;101676.97;;;19.43;56.65
3780;BME280;1905;52.482;9.802;2023-05-07T12:32:13;101681.38;;;19.44;56.49
3780;BME280;1905;52.482;9.802;2023-05-07T12:34:43;101671.59;;;19.43;56.00
3780;BME280;1905;52.482;9.802;2023-05-07T12:37:11;101675.47;;;19.39;56.10
3780;BME280;1905;52.482;9.802;2023-05-07T12:39:44;101668.66;;;19.20;55.54
3780;BME280;1905;52.482;9.802;2023-05-07T12:42:14;101671.34;;;19.20;55.63
3780;BME280;1905;52.482;9.802;2023-05-07T12:44:45;101665.09;;;19.33;55.66
3780;BME280;1905;52.482;9.802;2023-05-07T12:47:14;101666.59;;;19.51;55.96
3780;BME280;1905;52.482;9.802;2023-05-07T12:49:43;101671.56;;;19.57;55.91
3780;BME280;1905;52.482;9.802;2023-05-07T12:52:12;101670.22;;;19.65;55.89
3780;BME280;1905;52.482;9.802;2023-05-07T12:54:40;101673.28;;;19.73;55.57
3780;BME280;1905;52.482;9.802;2023-05-07T12:57:08;101677.44;;;19.77;56.00
3780;BME280;1905;52.482;9.802;2023-05-07T12:59:38;101677.44;;;19.77;55.65
3780;BME280;1905;52.482;9.802;2023-05-07T13:02:06;101674.38;;;19.83;55.59
3780;BME280;1905;52.482;9.802;2023-05-07T13:04:35;101671.19;;;19.90;55.26
3780;BME280;1905;52.482;9.802;2023-05-07T13:07:05;101668.28;;;19.93;55.27
3780;BME280;1905;52.482;9.802;2023-05-07T13:09:32;101663.25;;;19.89;55.26
3780;BME280;1905;52.482;9.802;2023-05-07T13:12:00;101667.44;;;19.93;55.32
3780;BME280;1905;52.482;9.802;2023-05-07T13:14:31;101672.84;;;20.05;55.52
3780;BME280;1905;52.482;9.802;2023-05-07T13:16:58;101665.44;;;20.09;55.22
3780;BME280;1905;52.482;9.802;2023-05-07T13:19:26;101671.56;;;20.11;55.33
3780;BME280;1905;52.482;9.802;2023-05-07T13:21:56;101663.28;;;20.14;55.06
3780;BME280;1905;52.482;9.802;2023-05-07T13:24:25;101656.03;;;20.16;55.10
3780;BME280;1905;52.482;9.802;2023-05-07T13:26:53;101670.59;;;20.12;55.21
3780;BME280;1905;52.482;9.802;2023-05-07T13:29:21;101654.50;;;20.12;54.95